Time;durP1;ratioP1;P1;durP2;ratioP2;P2;SDS_P1;SDS_P2;PMS_P1;PMS_P2;Temp;Humidity;BMP_temperature;BMP_pressure;BME280_temperature;BME280_humidity;BME280_pressure;Samples;Min_cycle;Max_cycle;Signal;HPM_P1;HPM_P2
2023/08/13 00:02:10;;;;;;;18.30;3.58;;;;;;;;;;5053004;28;20067;-76
2023/08/13 00:04:36;;;;;;;21.02;3.08;;;;;;;;;;5052928;28;20372;-77
2023/08/13 00:07:02;;;;;;;21.73;3.80;;;;;;;;;;5053225;28;20029;-76
2023/08/13 00:09:28;;;;;;;18.30;3.20;;;;;;;;;;5052841;28;20525;-77
2023/08/13 00:11:54;;;;;;;24.48;3.55;;;;;;;;;;5052858;28;20085;-76
2023/08/13 00:14:20;;;;;;;17.38;3.53;;;;;;;;;;5039209;28;20067;-76
2023/08/13 00:16:47;;;;;;;17.05;3.70;;;;;;;;;;5040017;28;20025;-76
2023/08/13 00:19:13;;;;;;;19.17;4.00;;;;;;;;;;5032860;28;20122;-76
2023/08/13 00:21:39;;;;;;;24.00;4.40;;;;;;;;;;5045103;28;20013;-76
2023/08/13 00:24:06;;;;;;;18.17;3.40;;;;;;;;;;5052712;28;20032;-76
2023/08/13 00:26:32;;;;;;;20.25;3.70;;;;;;;;;;5052500;28;20032;-76
2023/08/13 00:28:58;;;;;;;20.75;3.63;;;;;;;;;;5052433;28;20025;-76
2023/08/13 00:31:24;;;;;;;22.90;3.50;;;;;;;;;;5052794;28;20021;-76
2023/08/13 00:33:51;;;;;;;21.20;4.07;;;;;;;;;;5052463;28;20036;-75
2023/08/13 00:36:17;;;;;;;20.58;3.65;;;;;;;;;;5052852;28;20376;-76
2023/08/13 00:38:43;;;;;;;24.40;4.13;;;;;;;;;;5052699;28;20033;-76
2023/08/13 00:41:09;;;;;;;18.83;3.20;;;;;;;;;;5052686;28;20028;-76
2023/08/13 00:43:38;;;;;;;18.50;3.38;;;;;;;;;;5052178;28;20028;-76
2023/08/13 00:46:04;;;;;;;20.27;3.58;;;;;;;;;;5052348;28;20075;-76
2023/08/13 00:48:31;;;;;;;20.75;3.95;;;;;;;;;;5052263;28;20096;-76
2023/08/13 00:50:57;;;;;;;18.83;3.58;;;;;;;;;;5052283;28;20096;-76
2023/08/13 00:53:23;;;;;;;16.80;3.33;;;;;;;;;;5052235;28;20559;-76
2023/08/13 00:55:49;;;;;;;21.15;3.50;;;;;;;;;;5052196;28;20056;-76
2023/08/13 00:58:16;;;;;;;13.65;3.55;;;;;;;;;;5052121;28;20060;-76
2023/08/13 01:00:42;;;;;;;24.83;4.25;;;;;;;;;;5052119;28;20029;-76
2023/08/13 01:03:08;;;;;;;14.65;3.60;;;;;;;;;;5032642;28;20421;-76
2023/08/13 01:05:53;;;;;;;22.05;3.88;;;;;;;;;;5032486;28;20028;-76
2023/08/13 01:08:25;;;;;;;20.45;3.88;;;;;;;;;;5052075;28;20371;-76
2023/08/13 01:10:55;;;;;;;19.45;3.97;;;;;;;;;;5051990;28;20044;-76
2023/08/13 01:13:23;;;;;;;29.58;4.38;;;;;;;;;;5052098;28;20021;-76
2023/08/13 01:15:52;;;;;;;18.08;4.20;;;;;;;;;;5051942;28;20480;-76
2023/08/13 01:18:22;;;;;;;25.50;4.28;;;;;;;;;;5052070;28;20033;-76
2023/08/13 01:20:48;;;;;;;25.10;3.80;;;;;;;;;;5052334;28;20021;-76
2023/08/13 01:23:14;;;;;;;15.30;3.38;;;;;;;;;;5052002;28;20647;-76
2023/08/13 01:25:43;;;;;;;15.40;3.70;;;;;;;;;;5051904;28;20056;-76
2023/08/13 01:28:27;;;;;;;19.13;4.50;;;;;;;;;;5054229;28;20123;-76
2023/08/13 01:30:55;;;;;;;19.73;3.47;;;;;;;;;;5043557;28;20049;-76
2023/08/13 01:33:27;;;;;;;17.02;3.50;;;;;;;;;;5055959;28;20021;-76
2023/08/13 01:35:56;;;;;;;21.75;3.35;;;;;;;;;;5055870;28;20029;-76
2023/08/13 01:38:23;;;;;;;21.73;4.07;;;;;;;;;;5052826;28;20021;-76
2023/08/13 01:40:50;;;;;;;15.77;3.35;;;;;;;;;;5035801;28;20032;-76
2023/08/13 01:43:16;;;;;;;21.90;3.53;;;;;;;;;;5035798;28;20084;-76
2023/08/13 01:45:42;;;;;;;24.52;3.80;;;;;;;;;;5036081;28;20033;-76
2023/08/13 01:48:08;;;;;;;19.88;4.00;;;;;;;;;;5035554;28;20032;-76
2023/08/13 01:50:35;;;;;;;16.63;3.60;;;;;;;;;;5035556;28;20104;-76
2023/08/13 01:53:01;;;;;;;20.23;3.35;;;;;;;;;;5035889;28;20028;-76
2023/08/13 01:55:27;;;;;;;20.52;3.95;;;;;;;;;;5045604;28;20104;-76
2023/08/13 01:57:53;;;;;;;18.17;3.95;;;;;;;;;;5055644;28;20056;-76
2023/08/13 02:00:20;;;;;;;15.80;3.35;;;;;;;;;;5055616;28;20056;-76
2023/08/13 02:02:46;;;;;;;14.90;2.92;;;;;;;;;;5055472;28;20037;-76
2023/08/13 02:05:12;;;;;;;28.08;3.58;;;;;;;;;;5055212;28;20021;-76
2023/08/13 02:07:38;;;;;;;20.20;3.30;;;;;;;;;;5055130;28;20059;-76
2023/08/13 02:10:04;;;;;;;22.50;3.92;;;;;;;;;;5055215;28;20056;-76
2023/08/13 02:12:30;;;;;;;18.75;3.15;;;;;;;;;;5055154;28;20033;-76
2023/08/13 02:14:56;;;;;;;18.45;3.05;;;;;;;;;;5054829;28;20033;-76
2023/08/13 02:17:22;;;;;;;18.17;3.40;;;;;;;;;;5055049;28;20029;-76
2023/08/13 02:19:48;;;;;;;16.27;3.15;;;;;;;;;;5055032;28;20051;-76
2023/08/13 02:22:14;;;;;;;17.35;3.10;;;;;;;;;;5054929;28;20060;-76
2023/08/13 02:24:41;;;;;;;18.40;3.65;;;;;;;;;;5053485;28;20033;-76
2023/08/13 02:27:08;;;;;;;23.58;3.50;;;;;;;;;;5054994;28;20036;-76
2023/08/13 02:29:34;;;;;;;23.23;3.35;;;;;;;;;;5042887;28;20061;-76
2023/08/13 02:32:00;;;;;;;17.25;2.45;;;;;;;;;;5035246;28;20027;-76
2023/08/13 02:34:26;;;;;;;21.38;3.40;;;;;;;;;;5035526;28;20104;-76
2023/08/13 02:36:53;;;;;;;13.45;3.17;;;;;;;;;;5053855;28;20025;-76
2023/08/13 02:39:19;;;;;;;22.05;3.45;;;;;;;;;;5054263;28;20056;-76
2023/08/13 02:41:45;;;;;;;17.80;3.15;;;;;;;;;;5054880;28;20025;-76
2023/08/13 02:44:11;;;;;;;24.45;3.28;;;;;;;;;;5054457;28;20427;-76
2023/08/13 02:46:37;;;;;;;16.70;3.25;;;;;;;;;;5054449;28;20435;-76
2023/08/13 02:49:03;;;;;;;18.30;3.50;;;;;;;;;;5054517;28;20503;-76
2023/08/13 02:51:29;;;;;;;18.30;3.22;;;;;;;;;;5054435;28;20025;-76
2023/08/13 02:53:55;;;;;;;22.98;3.58;;;;;;;;;;5054223;28;20029;-76
2023/08/13 02:56:21;;;;;;;25.63;3.50;;;;;;;;;;5054294;28;20029;-76
2023/08/13 02:58:47;;;;;;;20.65;3.53;;;;;;;;;;5054212;28;20040;-76
2023/08/13 03:01:13;;;;;;;23.00;4.10;;;;;;;;;;5054453;28;20039;-76
2023/08/13 03:03:39;;;;;;;14.40;3.38;;;;;;;;;;5054087;28;20029;-76
2023/08/13 03:06:06;;;;;;;22.02;3.90;;;;;;;;;;5054065;28;20135;-76
2023/08/13 03:08:33;;;;;;;19.70;3.38;;;;;;;;;;5054097;28;20021;-76
2023/08/13 03:10:59;;;;;;;20.33;3.30;;;;;;;;;;5038492;28;20492;-76
2023/08/13 03:13:25;;;;;;;18.27;4.13;;;;;;;;;;5034007;28;20108;-76
2023/08/13 03:15:51;;;;;;;29.00;3.83;;;;;;;;;;5034060;28;20022;-77
2023/08/13 03:18:17;;;;;;;15.15;3.17;;;;;;;;;;5033977;28;20028;-76
2023/08/13 03:20:43;;;;;;;23.15;4.00;;;;;;;;;;5034256;28;20047;-76
2023/08/13 03:23:09;;;;;;;21.92;3.88;;;;;;;;;;5043237;28;20436;-76
2023/08/13 03:25:35;;;;;;;18.73;4.00;;;;;;;;;;5053727;28;20534;-76
2023/08/13 03:28:01;;;;;;;25.20;4.03;;;;;;;;;;5053730;28;20052;-76
2023/08/13 03:30:27;;;;;;;17.95;3.58;;;;;;;;;;5053314;28;20041;-77
2023/08/13 03:32:53;;;;;;;16.98;3.25;;;;;;;;;;5053664;28;20083;-76
2023/08/13 03:35:19;;;;;;;16.48;3.13;;;;;;;;;;5035992;28;20033;-76
2023/08/13 03:37:45;;;;;;;17.48;3.30;;;;;;;;;;5033624;28;20027;-76
2023/08/13 03:40:11;;;;;;;18.48;3.33;;;;;;;;;;5049851;28;20021;-76
2023/08/13 03:42:37;;;;;;;16.17;3.15;;;;;;;;;;5053264;28;20427;-76
2023/08/13 03:45:03;;;;;;;15.27;3.47;;;;;;;;;;5053377;28;20032;-76
2023/08/13 03:47:29;;;;;;;18.33;3.50;;;;;;;;;;5053440;28;20029;-76
2023/08/13 03:49:55;;;;;;;15.63;3.70;;;;;;;;;;5050683;28;20066;-76
2023/08/13 03:52:21;;;;;;;18.10;2.80;;;;;;;;;;5033341;28;20034;-76
2023/08/13 03:54:47;;;;;;;18.20;3.28;;;;;;;;;;5033270;28;20529;-76
2023/08/13 03:57:13;;;;;;;13.30;2.67;;;;;;;;;;5033492;28;20044;-77
2023/08/13 03:59:39;;;;;;;15.52;3.03;;;;;;;;;;5048631;28;20399;-76
2023/08/13 04:02:05;;;;;;;17.55;2.90;;;;;;;;;;5053036;28;20053;-76
2023/08/13 04:04:31;;;;;;;21.30;4.07;;;;;;;;;;5052830;28;20369;-76
2023/08/13 04:06:58;;;;;;;15.18;2.58;;;;;;;;;;5052912;28;20029;-76
2023/08/13 04:09:24;;;;;;;14.07;3.05;;;;;;;;;;5051250;28;20027;-76
2023/08/13 04:11:50;;;;;;;11.68;2.72;;;;;;;;;;5033187;28;20026;-76
2023/08/13 04:14:16;;;;;;;15.98;2.92;;;;;;;;;;5031752;28;20033;-76
2023/08/13 04:16:42;;;;;;;14.95;3.15;;;;;;;;;;5032715;28;20036;-76
2023/08/13 04:19:08;;;;;;;14.23;3.20;;;;;;;;;;5031205;28;20022;-77
2023/08/13 04:21:33;;;;;;;15.02;3.22;;;;;;;;;;5032757;28;20128;-77
2023/08/13 04:24:00;;;;;;;19.92;3.20;;;;;;;;;;5032696;28;20029;-76
2023/08/13 04:26:26;;;;;;;14.70;2.70;;;;;;;;;;5032954;28;20782;-77
2023/08/13 04:28:52;;;;;;;17.83;2.95;;;;;;;;;;5032522;28;20057;-77
2023/08/13 04:31:20;;;;;;;13.25;2.67;;;;;;;;;;5032970;28;20048;-76
2023/08/13 04:33:46;;;;;;;13.93;2.83;;;;;;;;;;5032789;28;20084;-76
2023/08/13 04:36:12;;;;;;;15.85;3.08;;;;;;;;;;5041630;28;20020;-76
2023/08/13 04:38:38;;;;;;;17.42;2.92;;;;;;;;;;5052457;28;20025;-76
2023/08/13 04:41:04;;;;;;;12.82;2.88;;;;;;;;;;5052460;28;20078;-76
2023/08/13 04:43:30;;;;;;;17.17;2.88;;;;;;;;;;5052171;28;20442;-76
2023/08/13 04:45:56;;;;;;;11.75;2.75;;;;;;;;;;5052451;28;20021;-77
2023/08/13 04:48:42;;;;;;;15.07;2.65;;;;;;;;;;5052410;28;20028;-76
2023/08/13 04:51:08;;;;;;;16.83;2.90;;;;;;;;;;5052592;28;20074;-76
2023/08/13 04:53:34;;;;;;;16.60;3.42;;;;;;;;;;5052472;28;20086;-76
2023/08/13 04:56:00;;;;;;;12.43;2.35;;;;;;;;;;5052185;28;20059;-76
2023/08/13 04:58:26;;;;;;;15.15;2.67;;;;;;;;;;5052161;28;20068;-76
2023/08/13 05:00:52;;;;;;;13.77;2.88;;;;;;;;;;5051296;28;20112;-76
2023/08/13 05:03:18;;;;;;;12.07;2.80;;;;;;;;;;5052112;28;20090;-76
2023/08/13 05:05:45;;;;;;;16.45;3.15;;;;;;;;;;5052146;28;20032;-76
2023/08/13 05:08:11;;;;;;;10.75;2.65;;;;;;;;;;5052097;28;20021;-76
2023/08/13 05:10:37;;;;;;;11.93;2.60;;;;;;;;;;5052060;28;20371;-76
2023/08/13 05:13:03;;;;;;;16.20;3.00;;;;;;;;;;5052080;28;20040;-77
2023/08/13 05:15:30;;;;;;;10.27;2.45;;;;;;;;;;5051964;28;20028;-77
2023/08/13 05:17:57;;;;;;;10.57;2.45;;;;;;;;;;5052095;28;20082;-76
2023/08/13 05:20:23;;;;;;;11.60;2.72;;;;;;;;;;5052180;28;20397;-76
2023/08/13 05:22:49;;;;;;;13.48;3.20;;;;;;;;;;5051874;28;20368;-76
2023/08/13 05:25:15;;;;;;;15.25;2.92;;;;;;;;;;5052008;28;20079;-76
2023/08/13 05:27:41;;;;;;;14.63;3.00;;;;;;;;;;5051869;28;20083;-76
2023/08/13 05:30:08;;;;;;;15.90;2.78;;;;;;;;;;5050575;28;20060;-77
2023/08/13 05:32:34;;;;;;;13.88;2.55;;;;;;;;;;5051773;28;20100;-76
2023/08/13 05:35:00;;;;;;;12.98;2.78;;;;;;;;;;5051946;28;20104;-76
2023/08/13 05:37:32;;;;;;;13.98;3.15;;;;;;;;;;5051698;28;20057;-76
2023/08/13 05:39:58;;;;;;;15.05;3.45;;;;;;;;;;5051908;28;20036;-76
2023/08/13 05:42:24;;;;;;;12.93;2.55;;;;;;;;;;5051847;28;20025;-77
2023/08/13 05:44:50;;;;;;;13.75;3.13;;;;;;;;;;5051720;28;20026;-77
2023/08/13 05:47:16;;;;;;;17.15;3.35;;;;;;;;;;5052049;28;20025;-77
2023/08/13 05:49:42;;;;;;;14.07;2.80;;;;;;;;;;5051705;28;20032;-76
2023/08/13 05:52:08;;;;;;;14.43;2.65;;;;;;;;;;5051794;28;20029;-76
2023/08/13 05:54:34;;;;;;;10.68;2.47;;;;;;;;;;5051788;28;20041;-76
2023/08/13 05:57:00;;;;;;;11.77;2.83;;;;;;;;;;5051857;28;20369;-77
2023/08/13 05:59:27;;;;;;;11.07;2.50;;;;;;;;;;5051738;28;20086;-76
2023/08/13 06:01:53;;;;;;;10.77;2.60;;;;;;;;;;5051967;28;20017;-76
2023/08/13 06:04:19;;;;;;;14.43;2.30;;;;;;;;;;5051599;28;20076;-76
2023/08/13 06:06:45;;;;;;;11.98;2.55;;;;;;;;;;5053733;28;20051;-76
2023/08/13 06:09:12;;;;;;;10.70;2.53;;;;;;;;;;5051552;28;20453;-76
2023/08/13 06:11:38;;;;;;;11.57;2.72;;;;;;;;;;5031761;28;20036;-76
2023/08/13 06:14:04;;;;;;;11.90;2.83;;;;;;;;;;5034089;28;20208;-76
2023/08/13 06:16:30;;;;;;;10.55;2.65;;;;;;;;;;5055171;28;20036;-76
2023/08/13 06:18:56;;;;;;;10.73;2.58;;;;;;;;;;5055405;28;20048;-76
2023/08/13 06:21:23;;;;;;;12.93;2.75;;;;;;;;;;5055035;28;20106;-76
2023/08/13 06:23:49;;;;;;;8.73;2.42;;;;;;;;;;5054968;28;20452;-76
2023/08/13 06:26:15;;;;;;;13.52;2.60;;;;;;;;;;5054989;28;20036;-76
2023/08/13 06:28:41;;;;;;;12.70;2.78;;;;;;;;;;5055268;28;20025;-76
2023/08/13 06:31:07;;;;;;;9.20;2.05;;;;;;;;;;5054689;28;20037;-76
2023/08/13 06:33:33;;;;;;;13.57;3.15;;;;;;;;;;5054826;28;20032;-76
2023/08/13 06:36:00;;;;;;;9.75;2.10;;;;;;;;;;5055297;28;20071;-76
2023/08/13 06:38:28;;;;;;;9.88;2.10;;;;;;;;;;5054947;28;20025;-77
2023/08/13 06:40:54;;;;;;;9.60;2.22;;;;;;;;;;5046495;28;20075;-76
2023/08/13 06:43:20;;;;;;;8.00;2.60;;;;;;;;;;5049655;28;20079;-76
2023/08/13 06:45:46;;;;;;;9.57;2.20;;;;;;;;;;5042504;28;20498;-76
2023/08/13 06:48:12;;;;;;;15.07;2.80;;;;;;;;;;5054617;28;20067;-77
2023/08/13 06:50:38;;;;;;;8.45;2.60;;;;;;;;;;5054550;28;20057;-76
2023/08/13 06:53:04;;;;;;;8.20;1.80;;;;;;;;;;5054785;28;20060;-76
2023/08/13 06:55:30;;;;;;;8.15;2.00;;;;;;;;;;5054792;28;20079;-76
2023/08/13 06:57:56;;;;;;;11.13;2.05;;;;;;;;;;5054633;28;20340;-76
2023/08/13 07:00:22;;;;;;;8.05;1.90;;;;;;;;;;5054066;28;20036;-76
2023/08/13 07:02:50;;;;;;;5.18;2.00;;;;;;;;;;5051196;28;20049;-76
2023/08/13 07:05:17;;;;;;;6.65;1.75;;;;;;;;;;5052850;28;20486;-76
2023/08/13 07:07:43;;;;;;;7.75;2.30;;;;;;;;;;5054271;28;20028;-76
2023/08/13 07:10:09;;;;;;;11.13;2.00;;;;;;;;;;5054161;28;20399;-76
2023/08/13 07:12:35;;;;;;;8.38;2.15;;;;;;;;;;5040787;28;20040;-76
2023/08/13 07:15:03;;;;;;;10.82;2.03;;;;;;;;;;5054037;28;20468;-77
2023/08/13 07:17:30;;;;;;;10.10;2.30;;;;;;;;;;5054324;28;20025;-77
2023/08/13 07:19:56;;;;;;;9.57;1.90;;;;;;;;;;5053860;28;20092;-77
2023/08/13 07:22:22;;;;;;;8.75;1.88;;;;;;;;;;5053891;28;20148;-77
2023/08/13 07:24:48;;;;;;;7.90;2.13;;;;;;;;;;5052834;28;20036;-77
2023/08/13 07:27:14;;;;;;;9.50;2.00;;;;;;;;;;5053907;28;20029;-77
2023/08/13 07:29:40;;;;;;;7.63;1.73;;;;;;;;;;5052614;28;20051;-77
2023/08/13 07:32:06;;;;;;;6.35;1.75;;;;;;;;;;5054396;28;20407;-77
2023/08/13 07:34:33;;;;;;;6.53;1.73;;;;;;;;;;5054017;28;20114;-77
2023/08/13 07:36:59;;;;;;;8.10;1.80;;;;;;;;;;5053668;28;20528;-76
2023/08/13 07:39:25;;;;;;;5.88;1.95;;;;;;;;;;5053456;28;20056;-77
2023/08/13 07:41:51;;;;;;;5.40;1.42;;;;;;;;;;5053890;28;20028;-77
2023/08/13 07:44:17;;;;;;;10.02;2.20;;;;;;;;;;5053403;28;20395;-77
2023/08/13 07:46:43;;;;;;;7.18;1.90;;;;;;;;;;5053481;28;20037;-77
2023/08/13 07:49:09;;;;;;;6.55;1.75;;;;;;;;;;5053661;28;20025;-77
2023/08/13 07:51:35;;;;;;;6.40;1.65;;;;;;;;;;5053413;28;20361;-77
2023/08/13 07:54:01;;;;;;;7.68;1.55;;;;;;;;;;5053288;28;20033;-77
2023/08/13 07:56:27;;;;;;;9.57;2.03;;;;;;;;;;5053324;28;20029;-77
2023/08/13 07:58:53;;;;;;;5.85;1.60;;;;;;;;;;5053419;28;20424;-77
2023/08/13 08:01:19;;;;;;;6.85;1.50;;;;;;;;;;5053350;28;20025;-77
2023/08/13 08:03:45;;;;;;;6.90;1.83;;;;;;;;;;5053119;28;20051;-77
2023/08/13 08:06:14;;;;;;;6.15;1.63;;;;;;;;;;5053238;28;20033;-77
2023/08/13 08:08:40;;;;;;;6.00;1.70;;;;;;;;;;5053282;28;20032;-77
2023/08/13 08:11:06;;;;;;;6.55;1.50;;;;;;;;;;5053116;28;20032;-77
2023/08/13 08:13:32;;;;;;;8.18;1.50;;;;;;;;;;5053140;28;20028;-77
2023/08/13 08:15:59;;;;;;;5.78;1.80;;;;;;;;;;5052913;28;20021;-77
2023/08/13 08:18:25;;;;;;;6.53;1.90;;;;;;;;;;5052985;28;20047;-78
2023/08/13 08:20:51;;;;;;;9.48;2.15;;;;;;;;;;5053413;28;20387;-77
2023/08/13 08:23:18;;;;;;;10.05;1.95;;;;;;;;;;5052739;28;20037;-77
2023/08/13 08:25:44;;;;;;;6.82;1.63;;;;;;;;;;5052907;28;20017;-77
2023/08/13 08:28:11;;;;;;;9.45;2.00;;;;;;;;;;5052925;28;20076;-77
2023/08/13 08:30:37;;;;;;;6.82;1.55;;;;;;;;;;5052740;28;20150;-78
2023/08/13 08:33:03;;;;;;;6.95;1.52;;;;;;;;;;5052641;28;20031;-77
2023/08/13 08:35:31;;;;;;;7.90;1.85;;;;;;;;;;5052655;28;20057;-77
2023/08/13 08:37:57;;;;;;;8.48;1.75;;;;;;;;;;5052506;28;20024;-78
2023/08/13 08:40:23;;;;;;;7.70;1.60;;;;;;;;;;5052512;28;20025;-77
2023/08/13 08:42:49;;;;;;;5.63;1.60;;;;;;;;;;5052632;28;20025;-77
2023/08/13 08:45:16;;;;;;;6.90;1.77;;;;;;;;;;5052670;28;20448;-77
2023/08/13 08:47:43;;;;;;;4.95;1.63;;;;;;;;;;5052724;28;20032;-77
2023/08/13 08:50:13;;;;;;;7.88;1.65;;;;;;;;;;5052634;28;20090;-77
2023/08/13 08:52:39;;;;;;;6.22;1.90;;;;;;;;;;5052807;28;20464;-77
2023/08/13 08:55:05;;;;;;;7.53;1.75;;;;;;;;;;5052499;28;20036;-77
2023/08/13 08:57:31;;;;;;;7.53;1.70;;;;;;;;;;5051077;28;20116;-77
2023/08/13 08:59:57;;;;;;;4.97;1.42;;;;;;;;;;5052450;28;20033;-77
2023/08/13 09:02:23;;;;;;;3.47;1.25;;;;;;;;;;5052321;28;20029;-77
2023/08/13 09:04:49;;;;;;;4.03;1.10;;;;;;;;;;5052305;28;20048;-77
2023/08/13 09:07:15;;;;;;;4.32;1.52;;;;;;;;;;5052357;28;20029;-78
2023/08/13 09:09:43;;;;;;;5.25;1.48;;;;;;;;;;5052448;28;20028;-77
2023/08/13 09:12:09;;;;;;;5.60;1.38;;;;;;;;;;5052810;28;20055;-77
2023/08/13 09:14:35;;;;;;;8.25;1.63;;;;;;;;;;5052811;28;20025;-77
2023/08/13 09:17:01;;;;;;;6.25;1.67;;;;;;;;;;5054746;28;20033;-77
2023/08/13 09:19:28;;;;;;;4.78;1.40;;;;;;;;;;5053816;28;20021;-77
2023/08/13 09:21:59;;;;;;;5.28;1.50;;;;;;;;;;5053379;28;20021;-77
2023/08/13 09:24:36;;;;;;;4.53;1.10;;;;;;;;;;5034258;28;20029;-77
2023/08/13 09:27:03;;;;;;;6.57;1.13;;;;;;;;;;5032235;28;20041;-77
2023/08/13 09:29:30;;;;;;;6.68;1.50;;;;;;;;;;5032129;28;20054;-77
2023/08/13 09:31:57;;;;;;;3.42;1.15;;;;;;;;;;5031879;28;20026;-77
2023/08/13 09:34:23;;;;;;;6.15;1.10;;;;;;;;;;5031926;28;20052;-77
2023/08/13 09:36:49;;;;;;;5.72;1.40;;;;;;;;;;5032340;28;20393;-77
2023/08/13 09:39:17;;;;;;;5.35;1.40;;;;;;;;;;5032158;28;20025;-77
2023/08/13 09:41:43;;;;;;;5.57;1.48;;;;;;;;;;5032263;28;20404;-77
2023/08/13 09:44:10;;;;;;;4.53;1.13;;;;;;;;;;5032234;28;20561;-77
2023/08/13 09:46:37;;;;;;;4.32;1.13;;;;;;;;;;5032294;28;20026;-77
2023/08/13 09:49:04;;;;;;;4.05;1.00;;;;;;;;;;5034583;28;20025;-76
2023/08/13 09:51:32;;;;;;;3.42;1.05;;;;;;;;;;5036131;28;20059;-77
2023/08/13 09:53:59;;;;;;;6.05;1.20;;;;;;;;;;5036415;28;20434;-77
2023/08/13 09:56:27;;;;;;;6.00;1.48;;;;;;;;;;5037150;28;20029;-76
2023/08/13 09:58:53;;;;;;;4.03;1.20;;;;;;;;;;5035836;28;20030;-77
2023/08/13 10:01:19;;;;;;;6.93;1.40;;;;;;;;;;5049659;28;20452;-77
2023/08/13 10:03:45;;;;;;;4.60;1.20;;;;;;;;;;5055584;28;20555;-76
2023/08/13 10:06:11;;;;;;;3.50;1.40;;;;;;;;;;5055902;28;20037;-77
2023/08/13 10:08:37;;;;;;;6.07;1.42;;;;;;;;;;5055476;28;20549;-77
2023/08/13 10:11:05;;;;;;;5.10;1.30;;;;;;;;;;5055353;28;20032;-77
2023/08/13 10:13:31;;;;;;;6.70;1.38;;;;;;;;;;5055441;28;20075;-77
2023/08/13 10:15:57;;;;;;;4.25;1.35;;;;;;;;;;5055549;28;20025;-77
2023/08/13 10:18:23;;;;;;;5.47;1.50;;;;;;;;;;5055152;28;20017;-77
2023/08/13 10:20:49;;;;;;;4.28;1.20;;;;;;;;;;5055263;28;20029;-77
2023/08/13 10:23:18;;;;;;;3.72;1.23;;;;;;;;;;5054929;28;20045;-77
2023/08/13 10:25:44;;;;;;;5.47;1.30;;;;;;;;;;5055648;28;20029;-76
2023/08/13 10:28:32;;;;;;;6.82;1.35;;;;;;;;;;5055035;28;20049;-77
2023/08/13 10:31:20;;;;;;;7.03;1.42;;;;;;;;;;5053804;28;20445;-77
2023/08/13 10:33:46;;;;;;;5.60;1.20;;;;;;;;;;5054976;28;20017;-76
2023/08/13 10:36:12;;;;;;;4.20;0.98;;;;;;;;;;5054955;28;20028;-77
2023/08/13 10:38:38;;;;;;;4.70;1.30;;;;;;;;;;5055179;28;20507;-77
2023/08/13 10:41:06;;;;;;;5.13;1.23;;;;;;;;;;5054781;28;20083;-77
2023/08/13 10:43:35;;;;;;;5.45;1.10;;;;;;;;;;5054715;28;20025;-77
2023/08/13 10:46:05;;;;;;;6.65;1.20;;;;;;;;;;5039435;28;20126;-77
2023/08/13 10:48:37;;;;;;;5.68;1.10;;;;;;;;;;5034972;28;20026;-77
2023/08/13 10:51:03;;;;;;;3.28;1.20;;;;;;;;;;5034697;28;20028;-77
2023/08/13 10:53:29;;;;;;;4.18;1.15;;;;;;;;;;5034012;28;20044;-78
2023/08/13 10:55:58;;;;;;;4.13;1.10;;;;;;;;;;5033950;28;20030;-77
2023/08/13 10:58:27;;;;;;;3.67;1.40;;;;;;;;;;5054379;28;20433;-77
2023/08/13 11:00:57;;;;;;;2.28;0.93;;;;;;;;;;5054487;28;20036;-77
2023/08/13 11:03:26;;;;;;;3.47;1.05;;;;;;;;;;5054455;28;20036;-77
2023/08/13 11:05:52;;;;;;;4.47;1.08;;;;;;;;;;5054413;28;20472;-76
2023/08/13 11:08:22;;;;;;;3.03;1.10;;;;;;;;;;5054358;28;20100;-76
2023/08/13 11:10:49;;;;;;;3.50;1.10;;;;;;;;;;5054288;28;20029;-77
2023/08/13 11:13:16;;;;;;;4.78;1.08;;;;;;;;;;5054224;28;20037;-76
2023/08/13 11:15:49;;;;;;;5.35;1.42;;;;;;;;;;5054224;28;20017;-76
2023/08/13 11:18:15;;;;;;;2.75;1.20;;;;;;;;;;5054083;28;20033;-76
2023/08/13 11:20:41;;;;;;;6.68;1.40;;;;;;;;;;5073111;28;20029;-76
2023/08/13 11:23:07;;;;;;;2.85;1.15;;;;;;;;;;5074062;28;20155;-77
2023/08/13 11:25:33;;;;;;;4.38;1.40;;;;;;;;;;5072741;28;20073;-77
2023/08/13 11:28:00;;;;;;;5.10;1.65;;;;;;;;;;5073953;28;20020;-77
2023/08/13 11:30:27;;;;;;;5.25;1.50;;;;;;;;;;5072833;28;20075;-77
2023/08/13 11:32:53;;;;;;;4.88;1.60;;;;;;;;;;5073705;28;20059;-77
2023/08/13 11:35:19;;;;;;;5.05;1.38;;;;;;;;;;5073786;28;20040;-76
2023/08/13 11:37:45;;;;;;;3.78;1.38;;;;;;;;;;5073714;28;20031;-76
2023/08/13 11:40:13;;;;;;;5.18;1.52;;;;;;;;;;5073594;28;20097;-76
2023/08/13 11:42:57;;;;;;;3.40;1.58;;;;;;;;;;5073809;28;20024;-77
2023/08/13 11:45:24;;;;;;;6.07;1.80;;;;;;;;;;5073635;28;20479;-77
2023/08/13 11:47:53;;;;;;;6.82;2.10;;;;;;;;;;5073597;28;20479;-77
2023/08/13 11:50:19;;;;;;;4.90;1.70;;;;;;;;;;5073137;28;20020;-77
2023/08/13 11:53:01;;;;;;;4.47;1.77;;;;;;;;;;5073255;28;20459;-77
2023/08/13 11:55:27;;;;;;;4.10;1.65;;;;;;;;;;5073445;28;20467;-76
2023/08/13 11:57:53;;;;;;;7.15;1.77;;;;;;;;;;5073340;28;20363;-77
2023/08/13 12:00:19;;;;;;;5.75;1.58;;;;;;;;;;5073314;28;20448;-77
2023/08/13 12:02:47;;;;;;;6.30;1.85;;;;;;;;;;5073319;28;20215;-77
2023/08/13 12:05:13;;;;;;;5.65;1.58;;;;;;;;;;5071715;28;20044;-77
2023/08/13 12:07:40;;;;;;;4.55;1.85;;;;;;;;;;5073463;28;20024;-76
2023/08/13 12:10:06;;;;;;;4.53;1.52;;;;;;;;;;5073136;28;20064;-77
2023/08/13 12:12:32;;;;;;;5.18;1.50;;;;;;;;;;5072595;28;20082;-77
2023/08/13 12:14:58;;;;;;;4.10;1.50;;;;;;;;;;5072601;28;20029;-77
2023/08/13 12:17:24;;;;;;;5.85;1.85;;;;;;;;;;5072876;28;20464;-76
2023/08/13 12:19:50;;;;;;;8.73;1.80;;;;;;;;;;5065497;28;20029;-77
2023/08/13 12:22:16;;;;;;;7.03;1.73;;;;;;;;;;5053011;28;20033;-76
2023/08/13 12:24:42;;;;;;;6.90;1.80;;;;;;;;;;5053159;28;20040;-76
2023/08/13 12:27:12;;;;;;;5.07;1.92;;;;;;;;;;5052831;28;20040;-76
2023/08/13 12:29:38;;;;;;;3.90;1.80;;;;;;;;;;5051757;28;20063;-77
2023/08/13 12:32:04;;;;;;;4.93;1.65;;;;;;;;;;5052775;28;20029;-76
2023/08/13 12:34:31;;;;;;;5.00;2.00;;;;;;;;;;5052671;28;20036;-75
2023/08/13 12:36:56;;;;;;;2.80;1.50;;;;;;;;;;5052704;28;20033;-76
2023/08/13 12:39:23;;;;;;;2.95;1.73;;;;;;;;;;5052668;28;20029;-76
2023/08/13 12:41:49;;;;;;;5.40;1.83;;;;;;;;;;5052955;28;20024;-76
2023/08/13 12:44:15;;;;;;;3.03;1.35;;;;;;;;;;5052555;28;20090;-76
2023/08/13 12:46:41;;;;;;;5.18;1.67;;;;;;;;;;5053457;28;20071;-77
2023/08/13 12:49:07;;;;;;;3.88;1.48;;;;;;;;;;5053754;28;20045;-76
2023/08/13 12:51:33;;;;;;;4.85;1.48;;;;;;;;;;5051856;28;20471;-76
2023/08/13 12:53:59;;;;;;;5.15;1.30;;;;;;;;;;5052590;28;20033;-76
2023/08/13 12:56:25;;;;;;;2.47;1.00;;;;;;;;;;5052344;28;20025;-76
2023/08/13 12:58:52;;;;;;;3.03;0.90;;;;;;;;;;5052521;28;20029;-77
2023/08/13 13:01:18;;;;;;;2.60;0.90;;;;;;;;;;5052468;28;20588;-76
2023/08/13 13:03:43;;;;;;;4.22;1.10;;;;;;;;;;5051088;28;20056;-76
2023/08/13 13:06:09;;;;;;;4.72;0.90;;;;;;;;;;5052510;28;20057;-76
2023/08/13 13:08:35;;;;;;;1.70;0.63;;;;;;;;;;5052503;28;20583;-76
2023/08/13 13:11:01;;;;;;;2.15;0.90;;;;;;;;;;5052647;28;20036;-76
2023/08/13 13:13:28;;;;;;;3.08;0.82;;;;;;;;;;5052516;28;20032;-78
2023/08/13 13:15:54;;;;;;;2.22;0.90;;;;;;;;;;5053060;28;20028;-77
2023/08/13 13:18:20;;;;;;;2.28;0.80;;;;;;;;;;5052944;28;20052;-77
2023/08/13 13:20:46;;;;;;;3.80;0.98;;;;;;;;;;5054509;28;20029;-76
2023/08/13 13:23:12;;;;;;;5.43;1.05;;;;;;;;;;5055801;28;20033;-76
2023/08/13 13:25:38;;;;;;;2.72;0.88;;;;;;;;;;5056569;28;20438;-77
2023/08/13 13:28:05;;;;;;;3.08;0.95;;;;;;;;;;5057576;28;20029;-76
2023/08/13 13:30:32;;;;;;;2.38;0.85;;;;;;;;;;5055683;28;20059;-76
2023/08/13 13:32:59;;;;;;;2.15;0.98;;;;;;;;;;5057059;28;20021;-77
2023/08/13 13:35:25;;;;;;;4.35;1.02;;;;;;;;;;5055758;28;20139;-77
2023/08/13 13:37:51;;;;;;;3.92;0.80;;;;;;;;;;5056894;28;20021;-76
2023/08/13 13:40:17;;;;;;;2.88;1.10;;;;;;;;;;5056894;28;20025;-76
2023/08/13 13:42:43;;;;;;;1.95;0.75;;;;;;;;;;5056837;28;20017;-77
2023/08/13 13:45:09;;;;;;;3.10;1.08;;;;;;;;;;5056871;28;20036;-77
2023/08/13 13:47:35;;;;;;;4.78;1.52;;;;;;;;;;5056838;28;20032;-76
2023/08/13 13:50:01;;;;;;;4.20;1.13;;;;;;;;;;5056804;28;20024;-77
2023/08/13 13:52:27;;;;;;;2.83;0.90;;;;;;;;;;5056691;28;20036;-77
2023/08/13 13:54:55;;;;;;;3.72;1.02;;;;;;;;;;5057103;28;20033;-76
2023/08/13 13:57:23;;;;;;;2.78;1.02;;;;;;;;;;5055387;28;20097;-76
2023/08/13 13:59:49;;;;;;;2.33;0.90;;;;;;;;;;5056857;28;20021;-76
2023/08/13 14:02:16;;;;;;;3.05;1.10;;;;;;;;;;5056561;28;20064;-76
2023/08/13 14:04:42;;;;;;;2.90;1.05;;;;;;;;;;5055347;28;20036;-76
2023/08/13 14:07:08;;;;;;;3.35;1.17;;;;;;;;;;5056692;28;20368;-76
2023/08/13 14:09:34;;;;;;;2.80;0.98;;;;;;;;;;5056695;28;20021;-77
2023/08/13 14:12:00;;;;;;;2.95;1.00;;;;;;;;;;5056646;28;20025;-76
2023/08/13 14:14:26;;;;;;;3.30;1.00;;;;;;;;;;5056308;28;20393;-76
2023/08/13 14:16:52;;;;;;;3.15;1.10;;;;;;;;;;5056307;28;20036;-76
2023/08/13 14:19:18;;;;;;;3.78;1.10;;;;;;;;;;5056176;28;20033;-77
2023/08/13 14:21:44;;;;;;;2.85;0.90;;;;;;;;;;5056220;28;20456;-77
2023/08/13 14:24:10;;;;;;;3.42;1.13;;;;;;;;;;5054512;28;20040;-76
2023/08/13 14:26:36;;;;;;;2.10;0.98;;;;;;;;;;5055994;28;20033;-76
2023/08/13 14:29:02;;;;;;;2.97;1.00;;;;;;;;;;5055770;28;20025;-76
2023/08/13 14:31:28;;;;;;;2.92;0.90;;;;;;;;;;5054482;28;20094;-76
2023/08/13 14:33:54;;;;;;;2.95;0.85;;;;;;;;;;5054531;28;20029;-75